Time;durP1;ratioP1;P1;durP2;ratioP2;P2;SDS_P1;SDS_P2;PMS_P1;PMS_P2;Temp;Humidity;BMP_temperature;BMP_pressure;BME280_temperature;BME280_humidity;BME280_pressure;Samples;Min_cycle;Max_cycle;Signal;HPM_P1;HPM_P2
2021/10/18 00:02:32;;;;;;;;;;;7.20;99.90;;;;;;20837414;28;20023;-78
2021/10/18 00:12:33;;;;;;;;;;;7.30;99.90;;;;;;20836435;28;19921;-78
2021/10/18 00:22:34;;;;;;;;;;;7.50;99.90;;;;;;20834637;28;20253;-78
2021/10/18 00:32:40;;;;;;;;;;;6.70;99.90;;;;;;20834911;28;19974;-78
2021/10/18 00:42:41;;;;;;;;;;;6.00;99.90;;;;;;20834244;28;19920;-78
2021/10/18 00:52:42;;;;;;;;;;;6.10;99.90;;;;;;20833758;28;19917;-78
2021/10/18 01:02:43;;;;;;;;;;;6.30;99.90;;;;;;20831924;28;20368;-78
2021/10/18 01:12:44;;;;;;;;;;;6.40;99.90;;;;;;20938829;22;19932;-79
2021/10/18 01:22:44;;;;;;;;;;;6.50;99.90;;;;;;20896997;28;19912;-79
2021/10/18 01:32:45;;;;;;;;;;;6.60;99.90;;;;;;20896259;28;20300;-80
2021/10/18 01:42:46;;;;;;;;;;;6.40;99.90;;;;;;20880078;28;20258;-79
2021/10/18 01:52:48;;;;;;;;;;;6.50;99.90;;;;;;20912678;28;20383;-79
2021/10/18 02:02:49;;;;;;;;;;;6.40;99.90;;;;;;20896510;28;19913;-79
2021/10/18 02:12:51;;;;;;;;;;;6.10;99.90;;;;;;20893796;28;19917;-79
2021/10/18 02:22:52;;;;;;;;;;;6.20;99.90;;;;;;20893540;28;19913;-79
2021/10/18 02:32:52;;;;;;;;;;;6.30;99.90;;;;;;20910736;28;20003;-79
2021/10/18 02:42:53;;;;;;;;;;;6.40;99.90;;;;;;20910610;28;19913;-79
2021/10/18 02:52:54;;;;;;;;;;;6.50;99.90;;;;;;20893514;28;19996;-79
2021/10/18 03:02:54;;;;;;;;;;;6.30;99.90;;;;;;20911271;28;20361;-79
2021/10/18 03:12:55;;;;;;;;;;;6.30;99.90;;;;;;20910005;28;20464;-79
2021/10/18 03:22:57;;;;;;;;;;;6.40;99.90;;;;;;20880535;28;19959;-79
2021/10/18 03:32:57;;;;;;;;;;;6.40;99.90;;;;;;20905694;28;19917;-79
2021/10/18 03:42:58;;;;;;;;;;;6.30;99.90;;;;;;20922257;28;19955;-79
2021/10/18 03:52:59;;;;;;;;;;;6.10;99.90;;;;;;20932112;28;20351;-79
2021/10/18 04:02:59;;;;;;;;;;;6.10;99.90;;;;;;20913736;28;20262;-80
2021/10/18 04:13:00;;;;;;;;;;;6.10;99.90;;;;;;20908699;28;19917;-80
2021/10/18 04:23:01;;;;;;;;;;;6.20;99.90;;;;;;20926593;28;19913;-79
2021/10/18 04:33:03;;;;;;;;;;;6.30;99.90;;;;;;20926095;28;20262;-80
2021/10/18 04:43:04;;;;;;;;;;;6.20;99.90;;;;;;20928716;28;20292;-80
2021/10/18 04:53:05;;;;;;;;;;;6.10;99.90;;;;;;20927148;28;20337;-80
2021/10/18 05:03:06;;;;;;;;;;;6.10;99.90;;;;;;20907380;28;19943;-79
2021/10/18 05:13:07;;;;;;;;;;;6.10;99.90;;;;;;20923005;28;19916;-80
2021/10/18 05:23:08;;;;;;;;;;;6.00;99.90;;;;;;20905229;28;19920;-79
2021/10/18 05:33:08;;;;;;;;;;;5.80;99.90;;;;;;20919061;28;19948;-79
2021/10/18 05:43:09;;;;;;;;;;;5.60;99.90;;;;;;20918530;28;19912;-78
2021/10/18 05:53:10;;;;;;;;;;;5.50;99.90;;;;;;20900357;28;19924;-79
2021/10/18 06:03:12;;;;;;;;;;;5.50;99.90;;;;;;20919692;28;19913;-78
2021/10/18 06:13:13;;;;;;;;;;;5.60;99.90;;;;;;20921048;28;20068;-79
2021/10/18 06:23:14;;;;;;;;;;;5.70;99.90;;;;;;20912305;28;19913;-80
2021/10/18 06:33:15;;;;;;;;;;;5.70;99.90;;;;;;20919407;28;19999;-79
2021/10/18 06:43:17;;;;;;;;;;;5.80;99.90;;;;;;20916433;28;19923;-80
2021/10/18 06:53:21;;;;;;;;;;;5.80;99.90;;;;;;20930829;28;19917;-80
2021/10/18 07:03:22;;;;;;;;;;;5.80;99.90;;;;;;20942091;28;19920;-80
2021/10/18 07:13:22;;;;;;;;;;;5.90;99.90;;;;;;21140595;22;19959;-80
2021/10/18 07:23:23;;;;;;;;;;;6.00;99.90;;;;;;21113003;28;19919;-78
2021/10/18 07:33:24;;;;;;;;;;;6.20;99.90;;;;;;21110283;28;19924;-80
2021/10/18 07:43:25;;;;;;;;;;;6.40;99.90;;;;;;21127530;28;19994;-80
2021/10/18 07:53:26;;;;;;;;;;;6.50;99.90;;;;;;21089642;28;19916;-80
2021/10/18 08:03:27;;;;;;;;;;;6.70;99.90;;;;;;21123219;28;19919;-80
2021/10/18 08:13:27;;;;;;;;;;;7.00;99.90;;;;;;21104533;28;20416;-80
2021/10/18 08:23:28;;;;;;;;;;;7.10;99.90;;;;;;21103090;28;19955;-81
2021/10/18 08:33:29;;;;;;;;;;;7.40;99.90;;;;;;21117475;28;19926;-80
2021/10/18 08:53:36;;;;;;;;;;;7.70;99.90;;;;;;21117095;28;20010;-78
2021/10/18 09:03:37;;;;;;;;;;;7.80;99.90;;;;;;21097384;28;19912;-81
2021/10/18 09:13:42;;;;;;;;;;;8.10;99.90;;;;;;21089903;28;20007;-80
2021/10/18 09:23:43;;;;;;;;;;;8.40;99.90;;;;;;21088273;28;19912;-81
2021/10/18 09:33:48;;;;;;;;;;;8.70;99.90;;;;;;21091766;28;19916;-78
2021/10/18 09:43:56;;;;;;;;;;;8.90;99.90;;;;;;21109871;28;20288;-80
2021/10/18 10:56:20;;;;;;;;;;;11.50;99.90;;;;;;21101894;28;19938;-81
2021/10/18 11:06:21;;;;;;;;;;;12.60;99.90;;;;;;21083361;28;20428;-81
2021/10/18 11:16:23;;;;;;;;;;;12.40;99.90;;;;;;21100673;28;19916;-79
2021/10/18 11:26:25;;;;;;;;;;;12.40;99.90;;;;;;21101818;28;19913;-78
2021/10/18 11:36:26;;;;;;;;;;;13.90;99.90;;;;;;21100143;28;19920;-81
2021/10/18 11:46:36;;;;;;;;;;;15.10;99.90;;;;;;21112631;28;19965;-83
2021/10/18 11:56:36;;;;;;;;;;;16.60;99.90;;;;;;21093993;28;19955;-80
2021/10/18 12:06:47;;;;;;;;;;;17.30;99.90;;;;;;21092681;28;19916;-80
2021/10/18 12:16:48;;;;;;;;;;;17.60;99.90;;;;;;21076612;28;20284;-81
2021/10/18 12:26:49;;;;;;;;;;;18.10;99.90;;;;;;21107129;28;19948;-80
2021/10/18 12:36:53;;;;;;;;;;;19.00;99.90;;;;;;21071647;28;20433;-81
2021/10/18 12:46:53;;;;;;;;;;;19.30;99.90;;;;;;21109566;28;19919;-80
2021/10/18 12:56:57;;;;;;;;;;;18.40;99.90;;;;;;21118446;28;19947;-81
2021/10/18 13:06:58;;;;;;;;;;;17.40;99.90;;;;;;21080201;22;20440;-80
2021/10/18 13:16:59;;;;;;;;;;;19.00;99.90;;;;;;20979004;28;19912;-79
2021/10/18 13:27:01;;;;;;;;;;;18.60;99.90;;;;;;20919494;28;19925;-80
2021/10/18 13:37:02;;;;;;;;;;;18.10;99.90;;;;;;20918041;28;19975;-80
2021/10/18 13:47:03;;;;;;;;;;;17.50;99.90;;;;;;20902371;28;19917;-80
2021/10/18 13:57:04;;;;;;;;;;;17.40;99.90;;;;;;20922453;28;20426;-79
2021/10/18 14:07:05;;;;;;;;;;;17.90;99.90;;;;;;20921862;28;19967;-80
2021/10/18 14:17:05;;;;;;;;;;;19.80;99.90;;;;;;20926274;28;19983;-81
2021/10/18 14:27:08;;;;;;;;;;;19.00;99.90;;;;;;20922315;28;20476;-79
2021/10/18 14:37:11;;;;;;;;;;;18.20;99.90;;;;;;20921172;28;19913;-80
2021/10/18 14:47:12;;;;;;;;;;;17.90;99.90;;;;;;20905319;28;20055;-79
2021/10/18 14:57:13;;;;;;;;;;;17.70;99.90;;;;;;20875217;28;19974;-78
2021/10/18 15:07:14;;;;;;;;;;;17.40;99.90;;;;;;20855846;28;19917;-78
2021/10/18 15:17:15;;;;;;;;;;;17.80;99.90;;;;;;20892249;28;20419;-78
2021/10/18 15:27:15;;;;;;;;;;;17.30;99.90;;;;;;20892461;28;20315;-79
2021/10/18 15:37:16;;;;;;;;;;;16.70;99.90;;;;;;20890001;28;19980;-80
2021/10/18 15:47:18;;;;;;;;;;;16.30;99.90;;;;;;20892528;28;19925;-78
2021/10/18 15:57:19;;;;;;;;;;;14.50;99.90;;;;;;20860712;28;19917;-79
2021/10/18 16:07:20;;;;;;;;;;;13.00;99.90;;;;;;20873915;28;20465;-78
2021/10/18 16:17:21;;;;;;;;;;;12.50;99.90;;;;;;20873782;28;19923;-79
2021/10/18 16:27:21;;;;;;;;;;;12.60;99.90;;;;;;20892157;28;20438;-79
2021/10/18 16:37:22;;;;;;;;;;;12.50;99.90;;;;;;20887522;28;20335;-79
2021/10/18 16:47:23;;;;;;;;;;;12.40;99.90;;;;;;20886766;28;20019;-78
2021/10/18 16:57:24;;;;;;;;;;;12.40;99.90;;;;;;20865599;28;19924;-78
2021/10/18 17:07:24;;;;;;;;;;;12.30;99.90;;;;;;20878983;28;19936;-78
2021/10/18 17:17:25;;;;;;;;;;;12.10;99.90;;;;;;20889960;28;19917;-78
2021/10/18 17:27:26;;;;;;;;;;;11.90;99.90;;;;;;20884479;28;20248;-80
2021/10/18 17:37:26;;;;;;;;;;;11.90;99.90;;;;;;20886460;28;19920;-80
2021/10/18 17:47:30;;;;;;;;;;;11.40;99.90;;;;;;20862370;28;19921;-79
2021/10/18 17:57:30;;;;;;;;;;;11.30;99.90;;;;;;20864803;28;21156;-79
2021/10/18 18:07:31;;;;;;;;;;;11.20;99.90;;;;;;20879248;28;19982;-79
2021/10/18 18:17:32;;;;;;;;;;;11.30;99.90;;;;;;20860098;28;20070;-79
2021/10/18 18:27:33;;;;;;;;;;;11.30;99.90;;;;;;20880354;28;19966;-79
2021/10/18 18:37:34;;;;;;;;;;;11.20;99.90;;;;;;20857725;28;20558;-78
2021/10/18 18:47:35;;;;;;;;;;;10.60;99.90;;;;;;20858737;28;19925;-77
2021/10/18 18:57:36;;;;;;;;;;;10.00;99.90;;;;;;20891556;28;19928;-78
2021/10/18 19:07:36;;;;;;;;;;;10.00;99.90;;;;;;20952786;22;19928;-74
2021/10/18 19:17:38;;;;;;;;;;;10.10;99.90;;;;;;21013976;28;19920;-76
2021/10/18 19:27:42;;;;;;;;;;;10.00;99.90;;;;;;21015614;28;19974;-76
2021/10/18 19:37:47;;;;;;;;;;;9.80;99.90;;;;;;21015348;28;19912;-76
2021/10/18 19:47:48;;;;;;;;;;;9.70;99.90;;;;;;21014653;28;19939;-73
2021/10/18 19:57:50;;;;;;;;;;;9.30;99.90;;;;;;21015230;28;19913;-73
2021/10/18 20:07:51;;;;;;;;;;;8.80;99.90;;;;;;21004793;28;19964;-70
2021/10/18 20:17:52;;;;;;;;;;;8.50;99.90;;;;;;20999688;28;19920;-76
2021/10/18 20:27:53;;;;;;;;;;;8.20;99.90;;;;;;20999826;28;19970;-73
2021/10/18 20:37:53;;;;;;;;;;;8.00;99.90;;;;;;20999444;28;19951;-73
2021/10/18 20:47:54;;;;;;;;;;;8.50;99.90;;;;;;20999591;28;20367;-73
2021/10/18 20:57:55;;;;;;;;;;;8.50;99.90;;;;;;20997404;28;19918;-74
2021/10/18 21:07:56;;;;;;;;;;;8.60;99.90;;;;;;20997749;28;20366;-73
2021/10/18 21:17:56;;;;;;;;;;;8.60;99.90;;;;;;20995902;28;20446;-73
2021/10/18 21:27:57;;;;;;;;;;;8.40;99.90;;;;;;20995859;28;19971;-72
2021/10/18 21:37:58;;;;;;;;;;;8.30;99.90;;;;;;20995390;28;19913;-72
2021/10/18 21:47:58;;;;;;;;;;;8.30;99.90;;;;;;20994526;28;19917;-73
2021/10/18 21:57:59;;;;;;;;;;;8.30;99.90;;;;;;20992556;28;19916;-75
2021/10/18 22:08:00;;;;;;;;;;;8.40;99.90;;;;;;20992986;28;19917;-73
2021/10/18 22:18:00;;;;;;;;;;;8.40;99.90;;;;;;20991498;28;19919;-73
2021/10/18 22:28:01;;;;;;;;;;;8.40;99.90;;;;;;20991756;28;20555;-73
2021/10/18 22:38:02;;;;;;;;;;;8.10;99.90;;;;;;20991441;28;19946;-73
2021/10/18 22:48:03;;;;;;;;;;;8.00;99.90;;;;;;20990089;28;19916;-73
2021/10/18 22:58:03;;;;;;;;;;;8.20;99.90;;;;;;20990866;28;19973;-75
2021/10/18 23:08:04;;;;;;;;;;;8.30;99.90;;;;;;20989933;28;19920;-73
2021/10/18 23:18:05;;;;;;;;;;;8.20;99.90;;;;;;20989759;28;19936;-73
2021/10/18 23:28:05;;;;;;;;;;;8.20;99.90;;;;;;20989054;28;19916;-73
2021/10/18 23:38:07;;;;;;;;;;;8.10;99.90;;;;;;20991723;28;19920;-73
2021/10/18 23:48:10;;;;;;;;;;;8.10;99.90;;;;;;21004009;28;19920;-73
2021/10/18 23:58:10;;;;;;;;;;;8.00;99.90;;;;;;21001834;28;20370;-73
